createdAt,value
2023-04-09T00:01:05.842Z,11.50
2023-04-09T00:03:34.271Z,11.85
2023-04-09T00:06:02.806Z,12.00
2023-04-09T00:08:31.073Z,11.40
2023-04-09T00:11:00.956Z,11.80
2023-04-09T00:13:38.619Z,12.07
2023-04-09T00:16:07.941Z,11.55
2023-04-09T00:18:36.287Z,10.75
2023-04-09T00:21:04.406Z,11.15
2023-04-09T00:23:32.549Z,10.85
2023-04-09T00:26:02.193Z,11.35
2023-04-09T00:28:30.530Z,11.80
2023-04-09T00:30:58.630Z,12.48
2023-04-09T00:33:27.252Z,11.80
2023-04-09T00:35:55.634Z,11.10
2023-04-09T00:38:24.006Z,12.50
2023-04-09T00:40:52.440Z,11.30
2023-04-09T00:43:22.300Z,11.88
2023-04-09T00:45:50.543Z,12.20
2023-04-09T00:48:18.885Z,11.10
2023-04-09T00:50:47.030Z,11.55
2023-04-09T00:53:17.081Z,12.20
2023-04-09T00:55:45.935Z,14.75
2023-04-09T00:58:14.647Z,13.13
2023-04-09T01:00:44.128Z,11.18
2023-04-09T01:03:12.423Z,10.45
2023-04-09T01:05:44.188Z,10.05
2023-04-09T01:08:20.036Z,11.73
2023-04-09T01:10:54.856Z,10.45
2023-04-09T01:13:31.662Z,12.38
2023-04-09T01:16:03.773Z,12.30
2023-04-09T01:18:36.682Z,13.82
2023-04-09T01:21:10.893Z,13.63
2023-04-09T01:23:48.343Z,11.95
2023-04-09T01:26:23.723Z,12.00
2023-04-09T01:28:56.052Z,11.50
2023-04-09T01:31:37.577Z,12.25
2023-04-09T01:34:07.467Z,11.15
2023-04-09T01:36:36.854Z,13.35
2023-04-09T01:39:06.190Z,12.52
2023-04-09T01:41:36.447Z,15.60
2023-04-09T01:44:07.209Z,15.60
2023-04-09T01:46:36.527Z,17.08
2023-04-09T01:49:06.095Z,12.35
2023-04-09T01:51:34.505Z,15.18
2023-04-09T01:54:02.885Z,14.00
2023-04-09T01:56:41.727Z,14.30
2023-04-09T01:59:11.242Z,17.00
2023-04-09T02:01:46.149Z,15.65
2023-04-09T02:04:21.201Z,17.58
2023-04-09T02:06:56.912Z,20.90
2023-04-09T02:09:26.041Z,19.08
2023-04-09T02:11:54.940Z,15.07
2023-04-09T02:14:26.630Z,20.77
2023-04-09T02:16:55.023Z,19.60
2023-04-09T02:19:23.144Z,18.10
2023-04-09T02:21:51.232Z,15.13
2023-04-09T02:24:19.319Z,15.73
2023-04-09T02:26:47.429Z,16.35
2023-04-09T02:29:15.517Z,15.13
2023-04-09T02:31:45.254Z,19.17
2023-04-09T02:34:13.311Z,15.57
2023-04-09T02:36:41.394Z,22.92
2023-04-09T02:39:09.453Z,15.93
2023-04-09T02:41:37.515Z,19.50
2023-04-09T02:44:05.820Z,15.18
2023-04-09T02:46:33.961Z,14.50
2023-04-09T02:49:03.486Z,14.48
2023-04-09T02:51:31.588Z,15.32
2023-04-09T02:53:59.649Z,15.38
2023-04-09T02:56:27.744Z,24.77
2023-04-09T02:58:55.840Z,22.75
2023-04-09T03:01:24.099Z,27.85
2023-04-09T03:03:52.252Z,16.35
2023-04-09T03:06:21.718Z,26.38
2023-04-09T03:08:50.094Z,17.65
2023-04-09T03:11:18.418Z,20.50
2023-04-09T03:13:46.565Z,27.67
2023-04-09T03:16:14.667Z,26.38
2023-04-09T03:18:42.735Z,29.67
2023-04-09T03:21:12.238Z,20.25
2023-04-09T03:23:43.832Z,24.30
2023-04-09T03:26:11.953Z,15.50
2023-04-09T03:28:40.044Z,13.20
2023-04-09T03:31:08.181Z,14.25
2023-04-09T03:33:36.525Z,17.48
2023-04-09T03:36:05.033Z,27.33
2023-04-09T03:38:33.184Z,15.65
2023-04-09T03:41:02.594Z,16.30
2023-04-09T03:43:30.674Z,27.70
2023-04-09T03:45:58.753Z,23.38
2023-04-09T03:48:26.872Z,15.80
2023-04-09T03:50:55.000Z,16.08
2023-04-09T03:53:23.132Z,15.75
2023-04-09T03:55:51.499Z,15.05
2023-04-09T03:58:21.279Z,15.50
2023-04-09T04:00:49.772Z,16.25
2023-04-09T04:03:18.159Z,16.20
2023-04-09T04:05:46.290Z,16.20
2023-04-09T04:08:14.738Z,16.60
2023-04-09T04:10:43.105Z,15.52
2023-04-09T04:13:11.361Z,14.73
2023-04-09T04:15:42.678Z,14.90
2023-04-09T04:18:11.336Z,14.32
2023-04-09T04:20:40.246Z,19.92
2023-04-09T04:23:08.379Z,20.60
2023-04-09T04:25:36.519Z,15.88
2023-04-09T04:28:04.622Z,15.52
2023-04-09T04:30:33.110Z,17.88
2023-04-09T04:33:02.646Z,14.98
2023-04-09T04:35:30.811Z,15.23
2023-04-09T04:37:58.914Z,13.60
2023-04-09T04:40:27.234Z,14.52
2023-04-09T04:42:55.301Z,12.95
2023-04-09T04:45:23.390Z,13.93
2023-04-09T04:47:51.480Z,13.25
2023-04-09T04:50:21.020Z,12.27
2023-04-09T04:52:49.178Z,12.32
2023-04-09T04:55:17.478Z,13.20
2023-04-09T04:57:45.608Z,14.65
2023-04-09T05:00:15.053Z,14.15
2023-04-09T05:02:43.310Z,12.63
2023-04-09T05:05:11.407Z,16.83
2023-04-09T05:07:40.908Z,12.18
2023-04-09T05:10:10.534Z,12.40
2023-04-09T05:12:38.758Z,12.73
2023-04-09T05:15:08.107Z,13.15
2023-04-09T05:17:36.304Z,15.02
2023-04-09T05:20:04.921Z,17.00
2023-04-09T05:22:33.017Z,18.77
2023-04-09T05:25:02.588Z,17.73
2023-04-09T05:27:30.861Z,15.82
2023-04-09T05:30:00.734Z,15.13
2023-04-09T05:32:29.386Z,13.20
2023-04-09T05:34:57.466Z,13.10
2023-04-09T05:37:25.726Z,19.40
2023-04-09T05:39:53.883Z,14.07
2023-04-09T05:42:23.373Z,16.48
2023-04-09T05:44:51.559Z,12.55
2023-04-09T05:47:19.705Z,13.13
2023-04-09T05:49:47.815Z,14.50
2023-04-09T05:52:16.659Z,20.38
2023-04-09T05:54:44.776Z,17.20
2023-04-09T05:57:13.104Z,23.75
2023-04-09T05:59:42.537Z,16.02
2023-04-09T06:02:10.702Z,20.77
2023-04-09T06:04:38.947Z,18.80
2023-04-09T06:07:07.093Z,21.13
2023-04-09T06:09:35.449Z,20.05
2023-04-09T06:12:04.080Z,23.23
2023-04-09T06:14:33.235Z,23.48
2023-04-09T06:17:02.866Z,24.75
2023-04-09T06:19:30.967Z,27.80
2023-04-09T06:21:59.155Z,24.30
2023-04-09T06:24:27.286Z,28.98
2023-04-09T06:26:55.444Z,26.48
2023-04-09T06:29:24.464Z,35.72
2023-04-09T06:31:52.675Z,39.17
2023-04-09T06:34:22.171Z,38.28
2023-04-09T06:36:50.315Z,33.08
2023-04-09T06:39:18.428Z,43.03
2023-04-09T06:41:46.533Z,45.50
2023-04-09T06:44:15.029Z,42.47
2023-04-09T06:46:43.192Z,43.00
2023-04-09T06:49:11.441Z,47.95
2023-04-09T06:51:41.060Z,39.90
2023-04-09T06:54:09.127Z,44.28
2023-04-09T06:56:37.223Z,50.95
2023-04-09T06:59:05.393Z,51.05
2023-04-09T07:01:35.658Z,50.15
2023-04-09T07:04:03.988Z,45.83
2023-04-09T07:06:32.117Z,48.50
2023-04-09T07:09:01.661Z,46.47
2023-04-09T07:11:29.781Z,48.38
2023-04-09T07:13:57.869Z,47.33
2023-04-09T07:16:26.130Z,48.95
2023-04-09T07:18:54.242Z,45.22
2023-04-09T07:21:22.363Z,46.65
2023-04-09T07:23:51.236Z,44.22
2023-04-09T07:26:21.374Z,46.13
2023-04-09T07:28:49.475Z,43.75
2023-04-09T07:31:17.595Z,45.03
2023-04-09T07:33:45.776Z,42.78
2023-04-09T07:36:13.962Z,40.75
2023-04-09T07:38:42.130Z,40.00
2023-04-09T07:41:12.281Z,41.70
2023-04-09T07:43:42.562Z,44.13
2023-04-09T07:46:10.694Z,42.38
2023-04-09T07:48:39.145Z,43.28
2023-04-09T07:51:07.584Z,40.17
2023-04-09T07:53:35.672Z,42.17
2023-04-09T07:56:03.901Z,39.08
2023-04-09T07:58:32.276Z,37.22
2023-04-09T08:01:01.801Z,39.30
2023-04-09T08:03:30.155Z,42.55
2023-04-09T08:05:58.422Z,40.50
2023-04-09T08:08:26.544Z,41.38
2023-04-09T08:10:54.979Z,39.25
2023-04-09T08:13:25.076Z,38.85
2023-04-09T08:15:53.218Z,39.20
2023-04-09T08:18:22.761Z,35.47
2023-04-09T08:20:50.886Z,37.03
2023-04-09T08:23:19.099Z,36.40
2023-04-09T08:25:47.281Z,35.22
2023-04-09T08:28:15.432Z,36.38
2023-04-09T08:30:44.156Z,33.15
2023-04-09T08:33:12.619Z,37.53
2023-04-09T08:35:42.618Z,34.30
2023-04-09T08:38:10.785Z,32.22
2023-04-09T08:40:38.990Z,36.90
2023-04-09T08:43:09.017Z,29.98
2023-04-09T08:45:37.272Z,33.55
2023-04-09T08:48:07.001Z,30.92
2023-04-09T08:50:35.261Z,32.33
2023-04-09T08:53:06.937Z,32.40
2023-04-09T08:55:35.670Z,33.75
2023-04-09T08:58:07.319Z,31.63
2023-04-09T09:00:35.438Z,28.15
2023-04-09T09:03:05.361Z,27.30
2023-04-09T09:05:38.265Z,31.02
2023-04-09T09:08:08.836Z,30.85
2023-04-09T09:10:41.484Z,30.15
2023-04-09T09:13:20.321Z,28.65
2023-04-09T09:15:50.559Z,29.40
2023-04-09T09:18:20.117Z,26.67
2023-04-09T09:20:48.640Z,27.30
2023-04-09T09:23:18.068Z,30.70
2023-04-09T09:25:47.112Z,29.65
2023-04-09T09:28:15.341Z,30.25
2023-04-09T09:30:43.797Z,30.88
2023-04-09T09:33:13.120Z,27.00
2023-04-09T09:35:51.679Z,28.27
2023-04-09T09:38:21.912Z,25.02
2023-04-09T09:40:52.547Z,25.38
2023-04-09T09:43:20.665Z,25.05
2023-04-09T09:45:49.624Z,26.02
2023-04-09T09:48:17.852Z,25.60
2023-04-09T09:50:47.846Z,24.38
2023-04-09T09:53:23.456Z,25.23
2023-04-09T09:55:54.814Z,23.65
2023-04-09T09:58:28.108Z,24.70
2023-04-09T10:00:57.930Z,22.40
2023-04-09T10:03:28.930Z,24.42
2023-04-09T10:05:59.379Z,21.77
2023-04-09T10:08:30.689Z,23.05
2023-04-09T10:10:58.916Z,23.75
2023-04-09T10:13:32.447Z,22.92
2023-04-09T10:16:01.794Z,21.20
2023-04-09T10:18:30.556Z,16.63
2023-04-09T10:21:00.662Z,21.88
2023-04-09T10:23:37.381Z,23.17
2023-04-09T10:26:06.000Z,21.67
2023-04-09T10:28:34.327Z,21.88
2023-04-09T10:31:02.778Z,21.92
2023-04-09T10:33:31.042Z,20.85
2023-04-09T10:36:02.486Z,19.10
2023-04-09T10:38:40.929Z,21.63
2023-04-09T10:41:14.128Z,20.33
2023-04-09T10:43:42.774Z,21.08
2023-04-09T10:46:29.166Z,20.33
2023-04-09T10:49:11.310Z,19.30
2023-04-09T10:51:40.474Z,20.70
2023-04-09T10:54:39.486Z,21.92
2023-04-09T10:57:15.567Z,21.40
2023-04-09T10:59:45.946Z,20.00
2023-04-09T11:02:49.356Z,22.83
2023-04-09T11:05:23.504Z,21.50
2023-04-09T11:07:57.926Z,23.90
2023-04-09T11:10:28.460Z,21.92
2023-04-09T11:12:56.654Z,20.75
2023-04-09T11:15:24.769Z,22.25
2023-04-09T11:17:53.075Z,22.98
2023-04-09T11:20:23.215Z,17.55
2023-04-09T11:22:52.029Z,22.20
2023-04-09T11:25:24.391Z,21.50
2023-04-09T11:27:54.790Z,20.25
2023-04-09T11:30:22.953Z,20.92
2023-04-09T11:32:51.765Z,19.42
2023-04-09T11:35:21.585Z,18.10
2023-04-09T11:37:52.349Z,20.90
2023-04-09T11:40:22.012Z,21.40
2023-04-09T11:42:51.474Z,17.48
2023-04-09T11:45:22.579Z,18.70
2023-04-09T11:47:50.841Z,21.20
2023-04-09T11:50:20.176Z,19.70
2023-04-09T11:52:48.649Z,19.27
2023-04-09T11:55:25.371Z,21.77
2023-04-09T11:57:55.593Z,21.15
2023-04-09T12:00:25.520Z,16.75
2023-04-09T12:03:02.234Z,18.75
2023-04-09T12:05:32.543Z,18.50
2023-04-09T12:08:01.770Z,15.07
2023-04-09T12:10:31.225Z,15.50
2023-04-09T12:13:03.551Z,19.55
2023-04-09T12:15:36.004Z,17.17
2023-04-09T12:18:04.543Z,20.08
2023-04-09T12:20:35.257Z,19.15
2023-04-09T12:23:04.929Z,19.45
2023-04-09T12:25:33.810Z,19.55
2023-04-09T12:28:02.149Z,16.25
2023-04-09T12:30:30.700Z,17.10
2023-04-09T12:33:00.729Z,17.55
2023-04-09T12:35:29.387Z,14.10
2023-04-09T12:37:59.391Z,13.23
2023-04-09T12:40:28.263Z,14.57
2023-04-09T12:42:56.530Z,14.13
2023-04-09T12:45:24.991Z,15.45
2023-04-09T12:47:53.151Z,13.38
2023-04-09T12:50:22.998Z,15.65
2023-04-09T12:52:51.267Z,16.85
2023-04-09T12:55:19.373Z,16.42
2023-04-09T12:57:47.847Z,16.48
2023-04-09T13:00:17.069Z,13.73
2023-04-09T13:02:45.275Z,13.27
2023-04-09T13:05:13.454Z,14.00
2023-04-09T13:07:43.588Z,15.10
2023-04-09T13:10:12.199Z,11.80
2023-04-09T13:12:40.411Z,12.57
2023-04-09T13:15:09.005Z,11.75
2023-04-09T13:17:37.176Z,12.25
2023-04-09T13:20:05.891Z,10.27
2023-04-09T13:22:34.044Z,11.48
2023-04-09T13:25:04.816Z,11.40
2023-04-09T13:27:32.957Z,12.07
2023-04-09T13:30:01.070Z,12.25
2023-04-09T13:32:29.228Z,11.43
2023-04-09T13:34:58.039Z,11.60
2023-04-09T13:37:26.228Z,10.60
2023-04-09T13:39:54.291Z,11.63
2023-04-09T13:42:23.822Z,11.07
2023-04-09T13:44:51.949Z,9.77
2023-04-09T13:47:20.202Z,9.75
2023-04-09T13:49:48.345Z,9.48
2023-04-09T13:52:16.497Z,9.85
2023-04-09T13:54:44.646Z,9.00
2023-04-09T13:57:12.778Z,7.25
2023-04-09T13:59:42.522Z,8.88
2023-04-09T14:02:10.834Z,7.13
2023-04-09T14:04:39.051Z,7.72
2023-04-09T14:07:07.365Z,7.43
2023-04-09T14:09:35.485Z,6.97
2023-04-09T14:12:03.601Z,8.80
2023-04-09T14:14:31.701Z,9.77
2023-04-09T14:17:01.235Z,9.32
2023-04-09T14:19:29.334Z,9.50
2023-04-09T14:21:57.458Z,7.45
2023-04-09T14:24:25.760Z,7.25
2023-04-09T14:26:54.162Z,8.40
2023-04-09T14:29:22.903Z,6.45
2023-04-09T14:31:51.810Z,7.20
2023-04-09T14:34:21.301Z,8.80
2023-04-09T14:36:49.753Z,8.63
2023-04-09T14:39:17.855Z,8.27
2023-04-09T14:41:46.008Z,7.75
2023-04-09T14:44:14.455Z,7.32
2023-04-09T14:46:42.623Z,8.07
2023-04-09T14:49:10.760Z,7.00
2023-04-09T14:51:40.338Z,5.47
2023-04-09T14:54:08.425Z,7.07
2023-04-09T14:56:36.627Z,7.95
2023-04-09T14:59:05.034Z,7.28
2023-04-09T15:01:33.438Z,6.80
2023-04-09T15:04:01.772Z,6.63
2023-04-09T15:06:31.455Z,6.30
2023-04-09T15:09:01.542Z,5.50
2023-04-09T15:11:29.715Z,5.75
2023-04-09T15:13:58.343Z,5.95
2023-04-09T15:16:29.005Z,3.90
2023-04-09T15:18:59.128Z,5.88
2023-04-09T15:21:27.847Z,4.82
2023-04-09T15:23:58.227Z,4.75
2023-04-09T15:26:28.102Z,5.30
2023-04-09T15:29:04.041Z,5.43
2023-04-09T15:31:32.804Z,4.30
2023-04-09T15:34:00.992Z,5.80
2023-04-09T15:36:30.083Z,4.90
2023-04-09T15:38:58.175Z,5.43
2023-04-09T15:41:27.647Z,5.15
2023-04-09T15:43:55.813Z,5.15
2023-04-09T15:46:24.256Z,5.70
2023-04-09T15:48:53.775Z,4.72
2023-04-09T15:51:22.183Z,5.10
2023-04-09T15:53:50.278Z,4.90
2023-04-09T15:56:19.843Z,4.53
2023-04-09T15:58:49.337Z,5.13
2023-04-09T16:01:17.587Z,5.07
2023-04-09T16:03:50.661Z,4.95
2023-04-09T16:06:19.712Z,5.97
2023-04-09T16:08:47.825Z,4.30
2023-04-09T16:11:17.253Z,5.30
2023-04-09T16:13:45.363Z,4.32
2023-04-09T16:16:14.928Z,4.65
2023-04-09T16:18:43.136Z,3.63
2023-04-09T16:21:11.309Z,4.43
2023-04-09T16:23:39.899Z,4.40
2023-04-09T16:26:08.258Z,5.22
2023-04-09T16:28:36.347Z,5.57
2023-04-09T16:31:04.461Z,5.10
2023-04-09T16:33:34.037Z,4.93
2023-04-09T16:36:02.230Z,4.72
2023-04-09T16:38:31.264Z,4.15
2023-04-09T16:40:59.564Z,4.97
2023-04-09T16:43:27.994Z,4.28
2023-04-09T16:45:56.443Z,5.03
2023-04-09T16:48:24.619Z,4.30
2023-04-09T16:50:54.135Z,4.85
2023-04-09T16:53:22.283Z,4.57
2023-04-09T16:55:50.615Z,4.20
2023-04-09T16:58:18.806Z,3.97
2023-04-09T17:00:48.787Z,4.53
2023-04-09T17:03:19.204Z,4.15
2023-04-09T17:05:49.616Z,4.68
2023-04-09T17:08:24.182Z,4.13
2023-04-09T17:11:01.906Z,4.43
2023-04-09T17:13:30.475Z,4.00
2023-04-09T17:15:59.046Z,4.10
2023-04-09T17:18:27.168Z,4.00
2023-04-09T17:20:55.360Z,3.92
2023-04-09T17:23:25.026Z,4.43
2023-04-09T17:25:53.246Z,4.15
2023-04-09T17:28:21.477Z,4.15
2023-04-09T17:30:49.957Z,4.53
2023-04-09T17:33:18.151Z,4.07
2023-04-09T17:35:46.671Z,4.50
2023-04-09T17:38:20.580Z,4.53
2023-04-09T17:40:50.677Z,4.30
2023-04-09T17:43:18.805Z,4.35
2023-04-09T17:45:46.896Z,4.13
2023-04-09T17:48:15.004Z,4.38
2023-04-09T17:50:43.103Z,4.30
2023-04-09T17:53:11.550Z,3.78
2023-04-09T17:55:39.686Z,4.25
2023-04-09T17:58:09.204Z,3.42
2023-04-09T18:00:37.601Z,3.50
2023-04-09T18:03:05.968Z,3.70
2023-04-09T18:05:36.033Z,3.33
2023-04-09T18:08:04.339Z,3.65
2023-04-09T18:10:32.511Z,3.45
2023-04-09T18:13:00.621Z,4.10
2023-04-09T18:15:31.911Z,3.63
2023-04-09T18:18:00.859Z,3.42
2023-04-09T18:20:29.366Z,3.47
2023-04-09T18:22:57.433Z,4.47
2023-04-09T18:25:25.835Z,4.95
2023-04-09T18:27:53.981Z,5.50
2023-04-09T18:30:22.218Z,4.95
2023-04-09T18:32:52.443Z,4.85
2023-04-09T18:35:20.975Z,4.55
2023-04-09T18:37:49.067Z,4.75
2023-04-09T18:40:18.644Z,4.80
2023-04-09T18:42:51.758Z,5.35
2023-04-09T18:45:20.147Z,4.70
2023-04-09T18:47:48.257Z,5.47
2023-04-09T18:50:18.865Z,4.82
2023-04-09T18:52:47.299Z,5.63
2023-04-09T18:55:16.347Z,4.43
2023-04-09T18:57:44.831Z,4.30
2023-04-09T19:00:13.804Z,4.50
2023-04-09T19:02:42.857Z,4.47
2023-04-09T19:05:11.352Z,4.88
2023-04-09T19:07:40.844Z,4.93
2023-04-09T19:10:09.506Z,4.47
2023-04-09T19:12:38.748Z,4.00
2023-04-09T19:15:07.557Z,4.25
2023-04-09T19:17:35.647Z,3.95
2023-04-09T19:20:04.459Z,4.22
2023-04-09T19:22:32.799Z,3.70
2023-04-09T19:25:02.376Z,4.38
2023-04-09T19:27:30.513Z,3.70
2023-04-09T19:30:01.191Z,3.85
2023-04-09T19:32:29.352Z,4.10
2023-04-09T19:34:57.521Z,3.90
2023-04-09T19:37:27.907Z,4.15
2023-04-09T19:39:56.329Z,3.60
2023-04-09T19:42:28.612Z,3.97
2023-04-09T19:44:56.665Z,3.80
2023-04-09T19:47:24.821Z,3.80
2023-04-09T19:49:53.018Z,3.95
2023-04-09T19:52:21.294Z,4.68
2023-04-09T19:54:54.236Z,3.90
2023-04-09T19:57:22.351Z,4.18
2023-04-09T19:59:52.382Z,4.35
2023-04-09T20:02:20.701Z,4.10
2023-04-09T20:04:48.959Z,4.30
2023-04-09T20:07:17.137Z,4.47
2023-04-09T20:09:46.951Z,4.32
2023-04-09T20:12:15.332Z,4.60
2023-04-09T20:14:43.471Z,5.00
2023-04-09T20:17:13.557Z,4.88
2023-04-09T20:19:41.770Z,5.90
2023-04-09T20:22:10.297Z,5.00
2023-04-09T20:24:38.749Z,4.85
2023-04-09T20:27:06.930Z,5.25
2023-04-09T20:29:35.097Z,4.82
2023-04-09T20:32:03.438Z,4.93
2023-04-09T20:34:33.083Z,5.65
2023-04-09T20:37:01.761Z,5.68
2023-04-09T20:39:31.277Z,4.97
2023-04-09T20:41:59.384Z,4.70
2023-04-09T20:44:30.387Z,4.93
2023-04-09T20:46:58.548Z,4.53
2023-04-09T20:49:27.853Z,5.20
2023-04-09T20:51:57.655Z,4.50
2023-04-09T20:54:25.886Z,4.30
2023-04-09T20:56:54.375Z,5.22
2023-04-09T20:59:23.584Z,5.38
2023-04-09T21:01:52.369Z,5.82
2023-04-09T21:04:21.158Z,6.60
2023-04-09T21:06:49.298Z,5.93
2023-04-09T21:09:18.792Z,6.55
2023-04-09T21:11:46.964Z,8.05
2023-04-09T21:14:15.055Z,5.10
2023-04-09T21:16:43.176Z,6.70
2023-04-09T21:19:11.279Z,7.03
2023-04-09T21:21:39.508Z,7.38
2023-04-09T21:24:07.588Z,7.68
2023-04-09T21:26:50.094Z,7.15
2023-04-09T21:29:20.041Z,8.70
2023-04-09T21:31:48.600Z,8.55
2023-04-09T21:34:17.272Z,8.15
2023-04-09T21:36:46.172Z,7.93
2023-04-09T21:39:14.583Z,7.57
2023-04-09T21:41:44.389Z,8.57
2023-04-09T21:44:13.426Z,7.50
2023-04-09T21:46:43.148Z,7.68
2023-04-09T21:49:11.468Z,8.27
2023-04-09T21:51:40.260Z,7.72
2023-04-09T21:54:09.771Z,7.85
2023-04-09T21:56:38.183Z,8.35
2023-04-09T21:59:07.641Z,7.40
2023-04-09T22:01:35.833Z,8.10
2023-04-09T22:04:04.574Z,8.23
2023-04-09T22:06:32.971Z,7.25
2023-04-09T22:09:01.771Z,7.78
2023-04-09T22:11:30.224Z,7.18
2023-04-09T22:13:58.698Z,7.68
2023-04-09T22:16:28.608Z,8.18
2023-04-09T22:18:57.159Z,7.47
2023-04-09T22:21:27.715Z,7.93
2023-04-09T22:23:56.008Z,7.80
2023-04-09T22:26:24.162Z,8.15
2023-04-09T22:28:52.486Z,8.40
2023-04-09T22:31:21.567Z,8.40
2023-04-09T22:33:51.104Z,8.25
2023-04-09T22:36:19.293Z,7.72
2023-04-09T22:38:47.442Z,7.75
2023-04-09T22:41:16.037Z,8.10
2023-04-09T22:43:44.150Z,8.13
2023-04-09T22:46:12.266Z,8.23
2023-04-09T22:48:55.580Z,7.43
2023-04-09T22:51:25.138Z,7.82
2023-04-09T22:53:53.249Z,8.18
2023-04-09T22:56:22.230Z,8.35
2023-04-09T22:58:50.364Z,8.68
2023-04-09T23:01:22.094Z,7.47
2023-04-09T23:03:51.300Z,8.35
2023-04-09T23:06:19.527Z,8.23
2023-04-09T23:08:48.970Z,7.50
2023-04-09T23:11:17.085Z,8.35
2023-04-09T23:13:45.391Z,7.65
2023-04-09T23:16:14.300Z,8.65
2023-04-09T23:18:42.395Z,7.00
2023-04-09T23:21:11.364Z,8.32
2023-04-09T23:23:40.274Z,7.60
2023-04-09T23:26:09.875Z,7.75
2023-04-09T23:28:37.986Z,8.45
2023-04-09T23:31:06.565Z,8.60
2023-04-09T23:33:34.712Z,7.95
2023-04-09T23:36:02.973Z,8.10
2023-04-09T23:38:31.175Z,8.13
2023-04-09T23:40:59.280Z,8.45
2023-04-09T23:43:28.810Z,8.88
2023-04-09T23:45:56.915Z,8.35
2023-04-09T23:48:25.086Z,7.63
2023-04-09T23:50:53.182Z,7.93
2023-04-09T23:53:21.372Z,7.90
2023-04-09T23:55:50.164Z,8.85
2023-04-09T23:58:18.920Z,8.60
